Time;durP1;ratioP1;P1;durP2;ratioP2;P2;SDS_P1;SDS_P2;PMS_P1;PMS_P2;Temp;Humidity;BMP_temperature;BMP_pressure;BME280_temperature;BME280_humidity;BME280_pressure;Samples;Min_cycle;Max_cycle;Signal;HPM_P1;HPM_P2
2023/06/29 00:00:23;;;;;;;105.75;100.38;;;;;;;26.10;42.16;101509.56;5095196;28;20040;-75
2023/06/29 00:02:48;;;;;;;107.50;101.97;;;;;;;26.09;42.25;101516.25;5095109;28;20092;-75
2023/06/29 00:05:14;;;;;;;108.00;102.28;;;;;;;26.08;42.45;101509.06;5096085;28;20024;-76
2023/06/29 00:07:40;;;;;;;108.25;102.53;;;;;;;26.07;42.23;101504.69;5096351;28;20032;-76
2023/06/29 00:10:07;;;;;;;105.65;100.30;;;;;;;26.05;42.11;101502.22;5096609;28;20105;-74
2023/06/29 00:12:33;;;;;;;106.53;101.03;;;;;;;26.04;42.15;101500.59;5094942;28;20032;-75
2023/06/29 00:14:59;;;;;;;110.43;104.32;;;;;;;26.03;42.36;101493.47;5095766;28;20035;-75
2023/06/29 00:17:24;;;;;;;108.38;102.28;;;;;;;26.02;42.48;101497.34;5095246;28;20046;-75
2023/06/29 00:19:49;;;;;;;108.78;103.03;;;;;;;26.01;42.63;101501.28;5094848;28;20067;-75
2023/06/29 00:22:15;;;;;;;107.57;102.22;;;;;;;26.00;42.12;101498.81;5095798;28;20055;-75
2023/06/29 00:24:44;;;;;;;111.38;105.82;;;;;;;26.00;42.21;101501.59;5095747;28;20028;-75
2023/06/29 00:27:13;;;;;;;109.32;103.32;;;;;;;25.97;42.44;101500.28;5096369;28;20043;-75
2023/06/29 00:29:43;;;;;;;106.50;101.05;;;;;;;25.97;42.55;101505.84;5094727;28;20483;-75
2023/06/29 00:32:10;;;;;;;113.40;107.40;;;;;;;25.96;42.58;101497.88;5095177;28;20067;-75
2023/06/29 00:34:35;;;;;;;107.63;102.00;;;;;;;25.94;42.38;101497.38;5094802;28;20046;-75
2023/06/29 00:37:00;;;;;;;106.10;100.38;;;;;;;25.93;42.43;101492.97;5094502;28;20061;-75
2023/06/29 00:39:26;;;;;;;106.75;101.38;;;;;;;25.92;42.39;101494.94;5095551;28;20032;-74
2023/06/29 00:41:53;;;;;;;106.88;101.38;;;;;;;25.90;42.46;101492.50;5094408;28;20028;-75
2023/06/29 00:44:18;;;;;;;107.68;102.28;;;;;;;25.89;42.29;101488.09;5095572;28;20028;-74
2023/06/29 00:46:44;;;;;;;106.95;101.25;;;;;;;25.88;42.53;101485.69;5095855;28;20032;-75
2023/06/29 00:49:10;;;;;;;106.72;100.97;;;;;;;25.86;42.62;101482.44;5094901;28;20100;-75
2023/06/29 00:51:36;;;;;;;104.78;99.00;;;;;;;25.85;42.68;101484.34;5095452;28;20032;-75
2023/06/29 00:54:01;;;;;;;103.28;97.78;;;;;;;25.84;42.74;101488.25;5095468;28;20055;-75
2023/06/29 00:56:30;;;;;;;103.35;97.85;;;;;;;25.82;42.60;101481.41;5094943;28;20405;-75
2023/06/29 00:58:55;;;;;;;108.82;103.05;;;;;;;25.82;42.69;101478.66;5095400;28;20071;-75
2023/06/29 01:01:21;;;;;;;109.45;103.90;;;;;;;25.80;42.26;101475.38;5077723;28;20460;-75
2023/06/29 01:03:46;;;;;;;106.65;101.13;;;;;;;25.79;42.83;101476.53;5094001;28;20039;-74
2023/06/29 01:06:19;;;;;;;106.60;100.70;;;;;;;25.78;42.52;101480.44;5094226;28;20040;-75
2023/06/29 01:08:48;;;;;;;106.25;100.60;;;;;;;25.75;42.81;101468.06;5094000;28;20467;-75
2023/06/29 01:11:14;;;;;;;104.93;99.50;;;;;;;25.75;42.47;101475.56;5095063;28;20031;-75
2023/06/29 01:13:43;;;;;;;106.68;100.65;;;;;;;25.74;42.45;101473.94;5095041;28;20064;-75
2023/06/29 01:16:11;;;;;;;103.05;97.63;;;;;;;25.72;42.69;101479.78;5093546;28;20028;-75
2023/06/29 01:18:39;;;;;;;106.88;101.07;;;;;;;25.70;42.42;101473.78;5095248;28;20491;-75
2023/06/29 01:21:05;;;;;;;102.45;96.85;;;;;;;25.70;42.27;101473.78;5093663;28;20088;-74
2023/06/29 01:23:36;;;;;;;108.15;102.28;;;;;;;25.68;42.35;101465.81;5094815;28;20040;-74
2023/06/29 01:26:04;;;;;;;107.50;102.00;;;;;;;25.67;42.52;101468.91;5094016;28;20422;-75
2023/06/29 01:28:31;;;;;;;105.53;100.22;;;;;;;25.66;42.52;101467.28;5095298;28;20118;-75
2023/06/29 01:30:58;;;;;;;105.72;99.75;;;;;;;25.64;42.81;101464.84;5093473;28;20414;-74
2023/06/29 01:33:24;;;;;;;107.85;101.60;;;;;;;25.63;42.72;101468.75;5095009;28;20383;-74
2023/06/29 01:36:00;;;;;;;103.78;98.30;;;;;;;25.62;42.86;101461.56;5093352;28;20028;-74
2023/06/29 01:38:36;;;;;;;104.30;98.70;;;;;;;25.62;42.49;101458.00;5093454;28;20097;-75
2023/06/29 01:41:06;;;;;;;102.85;97.40;;;;;;;25.59;42.73;101456.69;5094349;28;20032;-77
2023/06/29 01:43:32;;;;;;;104.47;98.63;;;;;;;25.59;42.68;101450.38;5094909;28;20479;-74
2023/06/29 01:45:58;;;;;;;104.32;98.82;;;;;;;25.57;42.50;101442.38;5094284;28;20115;-74
2023/06/29 01:48:25;;;;;;;103.20;97.68;;;;;;;25.56;42.93;101440.75;5094163;28;20115;-74
2023/06/29 01:50:51;;;;;;;103.53;97.70;;;;;;;25.56;42.48;101451.03;5093744;28;20431;-75
2023/06/29 01:53:17;;;;;;;104.60;99.18;;;;;;;25.55;42.75;101439.16;5094067;28;20442;-75
2023/06/29 01:55:42;;;;;;;106.88;101.22;;;;;;;25.53;42.80;101438.66;5093909;28;20028;-74
2023/06/29 01:58:09;;;;;;;103.00;97.43;;;;;;;25.52;42.91;101437.03;5092641;28;20067;-74
2023/06/29 02:00:35;;;;;;;107.43;102.10;;;;;;;25.51;42.81;101442.91;5094239;28;20527;-75
2023/06/29 02:03:01;;;;;;;102.20;96.90;;;;;;;25.50;42.92;101438.47;5092586;28;20124;-76
2023/06/29 02:05:26;;;;;;;104.22;98.93;;;;;;;25.50;42.54;101441.25;5094107;28;20111;-75
2023/06/29 02:07:52;;;;;;;102.57;97.10;;;;;;;25.48;42.99;101433.31;5092746;28;20032;-75
2023/06/29 02:10:17;;;;;;;106.13;100.70;;;;;;;25.46;43.00;101430.84;5094713;28;20035;-75
2023/06/29 02:12:43;;;;;;;102.88;97.18;;;;;;;25.45;42.96;101433.94;5094022;28;20036;-75
2023/06/29 02:15:08;;;;;;;103.78;98.05;;;;;;;25.44;42.85;101432.31;5092668;28;20062;-76
2023/06/29 02:17:34;;;;;;;107.32;101.82;;;;;;;25.44;42.88;101430.34;5093855;28;20024;-75
2023/06/29 02:19:59;;;;;;;105.63;99.90;;;;;;;25.41;42.91;101433.78;5092931;28;20072;-76
2023/06/29 02:22:25;;;;;;;104.18;98.75;;;;;;;25.40;42.73;101423.88;5094175;28;20081;-76
2023/06/29 02:24:50;;;;;;;106.35;100.45;;;;;;;25.40;43.07;101431.34;5093214;28;20047;-76
2023/06/29 02:27:15;;;;;;;105.28;99.70;;;;;;;25.39;42.95;101421.44;5092562;28;20103;-76
2023/06/29 02:29:41;;;;;;;102.68;97.30;;;;;;;25.38;43.06;101423.38;5092611;28;20058;-76
2023/06/29 02:32:06;;;;;;;105.72;100.28;;;;;;;25.37;43.02;101420.94;5092478;28;20032;-76
2023/06/29 02:34:32;;;;;;;100.78;95.35;;;;;;;25.36;42.92;101420.13;5092426;28;20032;-76
2023/06/29 02:36:57;;;;;;;104.80;99.25;;;;;;;25.35;42.95;101428.72;5092470;28;20039;-76
2023/06/29 02:39:23;;;;;;;102.80;97.38;;;;;;;25.34;42.95;101424.34;5075488;28;20081;-75
2023/06/29 02:41:48;;;;;;;106.47;100.55;;;;;;;25.33;42.83;101422.75;5092192;28;20444;-76
2023/06/29 02:44:13;;;;;;;107.43;101.43;;;;;;;25.31;43.17;101423.06;5092186;28;20032;-76
2023/06/29 02:46:40;;;;;;;104.03;98.60;;;;;;;25.31;43.39;101417.53;5092907;28;20043;-75
2023/06/29 02:49:06;;;;;;;105.90;99.93;;;;;;;25.29;43.34;101417.03;5093455;28;20026;-75
2023/06/29 02:51:32;;;;;;;107.43;101.47;;;;;;;25.29;43.21;101414.28;5075532;28;20044;-76
2023/06/29 02:53:57;;;;;;;108.10;102.15;;;;;;;25.29;42.84;101416.22;5091899;28;20085;-75
2023/06/29 02:56:23;;;;;;;107.00;101.20;;;;;;;25.27;43.01;101408.25;5093852;28;20099;-76
2023/06/29 02:58:48;;;;;;;107.40;101.30;;;;;;;25.25;43.08;101408.59;5091669;28;20494;-76
2023/06/29 03:01:13;;;;;;;108.68;102.70;;;;;;;25.25;43.26;101405.81;5093056;28;20483;-75
2023/06/29 03:03:39;;;;;;;104.13;98.47;;;;;;;25.24;43.37;101404.19;5095369;28;20533;-76
2023/06/29 03:06:04;;;;;;;105.45;99.60;;;;;;;25.23;43.04;101405.34;5096226;28;20031;-77
2023/06/29 03:08:30;;;;;;;105.30;99.50;;;;;;;25.23;43.44;101407.28;5097241;28;20047;-75
2023/06/29 03:10:55;;;;;;;104.53;98.93;;;;;;;25.21;43.11;101401.28;5096509;28;20115;-75
2023/06/29 03:13:20;;;;;;;106.15;99.82;;;;;;;25.22;43.22;101405.66;5097631;28;20043;-76
2023/06/29 03:15:46;;;;;;;102.57;96.68;;;;;;;25.20;43.05;101405.16;5096716;28;20068;-74
2023/06/29 03:18:11;;;;;;;102.20;96.82;;;;;;;25.19;43.44;101400.78;5097198;28;20031;-74
2023/06/29 03:20:37;;;;;;;105.78;99.65;;;;;;;25.18;43.51;101399.97;5096960;28;20043;-74
2023/06/29 03:23:03;;;;;;;107.05;101.03;;;;;;;25.18;43.44;101401.94;5097458;28;20055;-74
2023/06/29 03:25:29;;;;;;;99.60;93.90;;;;;;;25.16;43.23;101387.56;5097381;28;20035;-74
2023/06/29 03:27:54;;;;;;;103.95;97.95;;;;;;;25.16;43.56;101399.47;5078944;28;20032;-74
2023/06/29 03:30:20;;;;;;;110.88;104.50;;;;;;;25.15;43.32;101397.00;5097541;28;20044;-74
2023/06/29 03:32:45;;;;;;;100.90;95.03;;;;;;;25.13;43.68;101391.00;5096765;28;20043;-75
2023/06/29 03:35:10;;;;;;;106.00;99.80;;;;;;;25.12;43.41;101389.34;5095310;28;20408;-75
2023/06/29 03:37:36;;;;;;;98.53;93.28;;;;;;;25.11;43.22;101391.31;5096982;28;20108;-76
2023/06/29 03:40:01;;;;;;;101.78;96.18;;;;;;;25.11;43.53;101390.50;5096953;28;20032;-74
2023/06/29 03:42:27;;;;;;;101.13;95.78;;;;;;;25.10;43.16;101386.09;5095937;28;20036;-75
2023/06/29 03:44:52;;;;;;;99.40;93.90;;;;;;;25.10;43.45;101394.41;5097122;28;20028;-75
2023/06/29 03:47:18;;;;;;;104.20;97.97;;;;;;;25.08;43.11;101391.97;5097118;28;20070;-75
2023/06/29 03:49:43;;;;;;;104.75;97.68;;;;;;;25.07;43.15;101392.28;5096776;28;20050;-75
2023/06/29 03:52:08;;;;;;;101.70;95.88;;;;;;;25.05;43.67;101387.91;5097254;28;20036;-75
2023/06/29 03:54:34;;;;;;;102.32;96.05;;;;;;;25.05;43.47;101384.34;5095628;28;20032;-75
2023/06/29 03:56:59;;;;;;;101.85;96.20;;;;;;;25.04;43.64;101389.03;5096674;28;20570;-75
2023/06/29 03:59:25;;;;;;;102.43;96.20;;;;;;;25.04;43.76;101385.47;5096751;28;20089;-74
2023/06/29 04:01:50;;;;;;;100.10;93.88;;;;;;;25.02;43.71;101380.28;5096483;28;20513;-74
2023/06/29 04:04:16;;;;;;;103.90;97.93;;;;;;;25.02;43.69;101376.69;5095180;28;20376;-74
2023/06/29 04:06:41;;;;;;;99.18;93.70;;;;;;;25.01;43.75;101381.41;5096539;28;20036;-75
2023/06/29 04:09:07;;;;;;;102.80;96.80;;;;;;;25.00;43.21;101374.25;5095354;28;20031;-76
2023/06/29 04:11:32;;;;;;;101.28;95.28;;;;;;;25.00;43.72;101377.00;5096381;28;20464;-75
2023/06/29 04:13:57;;;;;;;103.63;97.80;;;;;;;24.99;43.27;101369.84;5094446;28;20052;-75
2023/06/29 04:16:23;;;;;;;98.97;93.63;;;;;;;24.97;43.60;101363.84;5077628;28;20032;-75
2023/06/29 04:18:48;;;;;;;101.63;95.82;;;;;;;24.97;43.62;101358.31;5061419;28;20058;-75
2023/06/29 04:21:13;;;;;;;103.65;97.75;;;;;;;24.97;43.42;101363.03;5077849;28;20060;-75
2023/06/29 04:23:39;;;;;;;97.78;92.20;;;;;;;24.96;43.11;101358.63;5095115;28;20040;-75
2023/06/29 04:26:04;;;;;;;108.38;102.22;;;;;;;24.95;43.73;101363.38;5096306;28;20055;-75
2023/06/29 04:28:34;;;;;;;105.45;99.10;;;;;;;24.95;43.70;101359.78;5096467;28;20107;-75
2023/06/29 04:30:59;;;;;;;105.88;99.97;;;;;;;24.93;43.50;101362.88;5095896;28;20414;-74
2023/06/29 04:33:25;;;;;;;106.18;100.07;;;;;;;24.92;43.67;101366.78;5095800;28;20471;-74
2023/06/29 04:35:50;;;;;;;105.82;99.15;;;;;;;24.93;43.71;101364.81;5094521;28;20111;-74
2023/06/29 04:38:17;;;;;;;100.65;95.07;;;;;;;24.92;43.41;101371.47;5095948;28;20108;-75
2023/06/29 04:40:43;;;;;;;98.03;92.63;;;;;;;24.91;43.69;101369.84;5095664;28;20036;-74
2023/06/29 04:43:09;;;;;;;99.10;93.63;;;;;;;24.90;43.61;101371.00;5094494;28;20031;-74
2023/06/29 04:45:34;;;;;;;101.25;95.45;;;;;;;24.90;43.41;101369.06;5094249;28;20495;-74
2023/06/29 04:48:00;;;;;;;98.05;92.38;;;;;;;24.89;43.45;101361.88;5095321;28;20074;-74
2023/06/29 04:50:31;;;;;;;104.25;97.78;;;;;;;24.88;43.49;101353.94;5094285;28;20120;-74
2023/06/29 04:52:58;;;;;;;100.15;93.40;;;;;;;24.89;43.64;101361.06;5095520;28;20484;-74
2023/06/29 04:55:24;;;;;;;102.32;96.38;;;;;;;24.88;43.74;101365.78;5095231;28;20042;-74
2023/06/29 04:57:50;;;;;;;108.40;102.20;;;;;;;24.86;43.91;101357.00;5095157;28;20079;-73
2023/06/29 05:00:16;;;;;;;104.50;98.40;;;;;;;24.86;43.60;101356.22;5094969;28;20055;-73
2023/06/29 05:02:42;;;;;;;106.03;99.47;;;;;;;24.86;43.90;101362.53;5095281;28;20077;-73
2023/06/29 05:05:08;;;;;;;103.35;97.28;;;;;;;24.85;43.47;101363.69;5095231;28;20415;-74
2023/06/29 05:07:34;;;;;;;100.70;94.95;;;;;;;24.85;43.57;101366.44;5095708;28;20024;-75
2023/06/29 05:10:00;;;;;;;104.68;98.82;;;;;;;24.83;43.53;101361.25;5094917;28;20395;-74
2023/06/29 05:12:26;;;;;;;104.90;98.97;;;;;;;24.84;43.74;101368.38;5093843;28;20452;-74
2023/06/29 05:14:52;;;;;;;99.70;93.40;;;;;;;24.82;43.61;101367.91;5095024;28;20028;-74
2023/06/29 05:17:17;;;;;;;99.60;94.07;;;;;;;24.82;43.76;101359.63;5093452;28;20040;-74
2023/06/29 05:19:44;;;;;;;99.78;93.97;;;;;;;24.82;43.91;101356.03;5095635;28;20120;-74
2023/06/29 05:22:09;;;;;;;101.28;95.07;;;;;;;24.80;43.46;101359.13;5093622;28;20042;-74
2023/06/29 05:24:34;;;;;;;98.57;92.82;;;;;;;24.80;43.49;101356.38;5094431;28;20084;-74
2023/06/29 05:27:00;;;;;;;103.95;98.10;;;;;;;24.80;43.87;101359.13;5093219;28;20028;-73
2023/06/29 05:29:25;;;;;;;103.70;97.78;;;;;;;24.78;43.72;101350.34;5094736;28;20032;-74
2023/06/29 05:31:51;;;;;;;100.22;94.53;;;;;;;24.79;43.87;101354.72;5093486;28;20032;-74
2023/06/29 05:34:16;;;;;;;104.25;97.90;;;;;;;24.79;43.65;101351.97;5094636;28;20376;-77
2023/06/29 05:36:42;;;;;;;105.50;99.47;;;;;;;24.77;43.47;101342.38;5093411;28;20063;-74
2023/06/29 05:39:07;;;;;;;101.80;95.72;;;;;;;24.76;43.55;101347.09;5095141;28;20203;-76
2023/06/29 05:41:33;;;;;;;103.82;97.75;;;;;;;24.76;43.64;101354.56;5094283;28;20059;-75
2023/06/29 05:43:59;;;;;;;102.05;95.95;;;;;;;24.75;43.60;101359.28;5093528;28;20036;-76
2023/06/29 05:46:25;;;;;;;106.00;100.07;;;;;;;24.76;43.89;101358.13;5076755;28;20476;-76
2023/06/29 05:48:50;;;;;;;99.78;93.97;;;;;;;24.74;43.67;101348.56;5093554;28;20138;-76
2023/06/29 05:51:16;;;;;;;104.53;98.75;;;;;;;24.74;43.97;101343.81;5094705;28;20032;-75
2023/06/29 05:53:41;;;;;;;101.55;95.68;;;;;;;24.74;43.84;101351.31;5093987;28;20165;-75
2023/06/29 05:56:06;;;;;;;102.50;96.70;;;;;;;24.74;43.96;101349.34;5094167;28;20043;-74
2023/06/29 05:58:32;;;;;;;105.35;99.25;;;;;;;24.73;43.68;101344.97;5094786;28;20085;-75
2023/06/29 06:00:57;;;;;;;102.05;95.75;;;;;;;24.73;43.68;101342.22;5094459;28;20036;-75
2023/06/29 06:03:23;;;;;;;100.57;95.03;;;;;;;24.73;43.51;101347.75;5092932;28;20032;-73
2023/06/29 06:05:49;;;;;;;103.30;97.38;;;;;;;24.73;43.90;101346.94;5093931;28;20046;-75
2023/06/29 06:08:14;;;;;;;101.78;95.13;;;;;;;24.73;43.80;101349.69;5094086;28;20028;-75
2023/06/29 06:10:40;;;;;;;101.03;94.85;;;;;;;24.73;44.18;101352.47;5093959;28;20024;-75
2023/06/29 06:13:05;;;;;;;98.85;92.95;;;;;;;24.73;43.88;101346.94;5075801;28;20085;-75
2023/06/29 06:15:31;;;;;;;102.90;96.47;;;;;;;24.72;43.60;101348.91;5093115;28;20035;-75
2023/06/29 06:17:56;;;;;;;97.07;91.60;;;;;;;24.72;43.83;101348.06;5092593;28;20023;-75
2023/06/29 06:20:21;;;;;;;101.22;95.57;;;;;;;24.73;43.73;101349.69;5094178;28;20043;-74
2023/06/29 06:22:47;;;;;;;102.78;97.00;;;;;;;24.72;43.56;101351.66;5093700;28;20028;-74
2023/06/29 06:25:15;;;;;;;104.35;98.63;;;;;;;24.72;43.54;101346.13;5094007;28;20035;-79
2023/06/29 06:27:41;;;;;;;101.22;95.43;;;;;;;24.73;44.23;101346.94;5092358;28;20035;-69
2023/06/29 06:30:07;;;;;;;103.07;97.38;;;;;;;24.73;44.35;101346.94;5093351;28;20028;-77
2023/06/29 06:32:33;;;;;;;101.65;95.88;;;;;;;24.73;43.93;101347.75;5093286;28;20051;-76
2023/06/29 06:34:58;;;;;;;103.85;97.90;;;;;;;24.74;44.21;101349.34;5093276;28;20429;-76
2023/06/29 06:37:24;;;;;;;98.90;93.50;;;;;;;24.74;43.96;101351.31;5091378;28;20383;-75
2023/06/29 06:39:49;;;;;;;100.22;94.10;;;;;;;24.75;44.24;101345.47;5093318;28;20040;-74
2023/06/29 06:42:14;;;;;;;102.13;95.97;;;;;;;24.75;44.21;101350.19;5092160;28;20035;-75
2023/06/29 06:44:54;;;;;;;100.95;95.25;;;;;;;24.76;44.50;101344.31;5093451;28;20035;-79
2023/06/29 06:47:20;;;;;;;96.80;91.38;;;;;;;24.76;43.97;101347.09;5091616;28;20035;-77
2023/06/29 06:49:46;;;;;;;95.13;89.60;;;;;;;24.78;44.27;101350.34;5092856;28;20028;-75
2023/06/29 06:52:11;;;;;;;103.10;96.18;;;;;;;24.79;44.05;101345.63;5093164;28;20060;-75
2023/06/29 06:54:37;;;;;;;99.38;93.65;;;;;;;24.79;44.44;101348.38;5092735;28;20134;-75
2023/06/29 06:57:02;;;;;;;99.90;94.20;;;;;;;24.79;43.94;101346.44;5091631;28;20100;-75
2023/06/29 06:59:28;;;;;;;97.68;91.90;;;;;;;24.81;44.42;101346.13;5093274;28;20097;-76
2023/06/29 07:01:54;;;;;;;100.20;94.57;;;;;;;24.82;44.31;101350.50;5091879;28;20036;-75
2023/06/29 07:04:19;;;;;;;98.28;92.82;;;;;;;24.83;44.33;101346.63;5092574;28;20036;-75
2023/06/29 07:06:46;;;;;;;94.68;89.70;;;;;;;24.83;44.29;101352.94;5074746;28;20036;-75
2023/06/29 07:09:11;;;;;;;98.30;92.82;;;;;;;24.86;43.69;101354.25;5092257;28;20051;-75
2023/06/29 07:11:37;;;;;;;100.18;94.50;;;;;;;24.87;44.18;101355.84;5092897;28;20365;-76
2023/06/29 07:14:03;;;;;;;97.68;92.38;;;;;;;24.88;43.77;101360.28;5093218;28;20020;-78
2023/06/29 07:16:28;;;;;;;97.85;92.28;;;;;;;24.89;43.85;101353.59;5091399;28;20028;-74
2023/06/29 07:19:08;;;;;;;98.50;93.05;;;;;;;24.92;44.20;101352.13;5075087;28;20067;-76
2023/06/29 07:21:34;;;;;;;95.95;90.38;;;;;;;24.92;44.05;101350.19;5092485;28;20463;-76
2023/06/29 07:23:59;;;;;;;96.95;91.07;;;;;;;24.94;44.33;101350.66;5092935;28;20099;-75
2023/06/29 07:26:26;;;;;;;97.25;91.68;;;;;;;24.96;44.22;101348.41;5092876;28;20032;-75
2023/06/29 07:28:51;;;;;;;95.50;90.25;;;;;;;24.97;44.21;101346.44;5093340;28;20452;-75
2023/06/29 07:31:16;;;;;;;96.97;91.47;;;;;;;24.98;44.14;101343.34;5092224;28;20038;-76
2023/06/29 07:33:42;;;;;;;97.88;92.53;;;;;;;25.00;44.09;101341.09;5092746;28;20032;-77
2023/06/29 07:36:08;;;;;;;96.82;91.80;;;;;;;25.02;43.96;101340.75;5092891;28;20036;-75
2023/06/29 07:38:33;;;;;;;102.57;96.97;;;;;;;25.03;43.81;101342.38;5074700;28;20043;-75
2023/06/29 07:40:59;;;;;;;99.82;94.25;;;;;;;25.05;43.84;101337.34;5091504;28;20040;-75
2023/06/29 07:43:24;;;;;;;102.45;96.50;;;;;;;25.07;43.76;101343.34;5091527;28;20032;-75
2023/06/29 07:45:49;;;;;;;100.47;94.90;;;;;;;25.08;43.81;101342.22;5091643;28;20040;-75
2023/06/29 07:48:16;;;;;;;104.30;97.78;;;;;;;25.10;44.00;101336.34;5093516;28;20057;-78
2023/06/29 07:50:42;;;;;;;99.32;93.38;;;;;;;25.13;44.19;101339.28;5097815;28;20103;-76
2023/06/29 07:53:08;;;;;;;100.57;95.22;;;;;;;25.15;43.75;101336.19;5097058;28;20071;-75
2023/06/29 07:55:34;;;;;;;101.35;95.78;;;;;;;25.16;43.76;101341.41;5096608;28;20081;-77
2023/06/29 07:58:00;;;;;;;98.90;93.75;;;;;;;25.19;43.61;101337.19;5096410;28;20055;-74
2023/06/29 08:00:26;;;;;;;100.10;94.43;;;;;;;25.21;43.96;101334.91;5096605;28;20062;-75
2023/06/29 08:02:51;;;;;;;97.60;92.15;;;;;;;25.22;43.80;101331.00;5096130;28;20463;-76
2023/06/29 08:05:17;;;;;;;100.82;95.13;;;;;;;25.24;43.77;101328.72;5077664;28;20376;-75
2023/06/29 08:07:42;;;;;;;102.47;96.50;;;;;;;25.26;43.58;101329.22;5096183;28;20028;-76
2023/06/29 08:10:08;;;;;;;101.90;96.07;;;;;;;25.28;43.66;101332.47;5096390;28;20032;-75
2023/06/29 08:12:34;;;;;;;103.38;97.47;;;;;;;25.30;43.84;101332.13;5094785;28;20039;-75
2023/06/29 08:14:59;;;;;;;102.03;96.20;;;;;;;25.32;43.61;101327.88;5094752;28;20028;-72
2023/06/29 08:17:25;;;;;;;102.43;96.65;;;;;;;25.34;43.72;101322.03;5094686;28;20111;-73
2023/06/29 08:19:50;;;;;;;103.85;97.78;;;;;;;25.36;43.99;101319.75;5077271;28;20106;-73
2023/06/29 08:22:15;;;;;;;99.50;93.95;;;;;;;25.37;43.71;101324.94;5094568;28;20415;-73
2023/06/29 08:24:41;;;;;;;100.93;95.22;;;;;;;25.39;43.79;101322.66;5094491;28;20058;-73
2023/06/29 08:27:06;;;;;;;99.53;94.47;;;;;;;25.42;43.22;101329.50;5096199;28;20031;-72
2023/06/29 08:29:31;;;;;;;107.55;101.60;;;;;;;25.44;43.62;101336.31;5094515;28;20082;-72
2023/06/29 08:31:57;;;;;;;100.05;94.70;;;;;;;25.44;43.64;101330.78;5095546;28;20403;-72
2023/06/29 08:34:22;;;;;;;98.88;93.43;;;;;;;25.46;43.29;101334.03;5096272;28;20035;-72
2023/06/29 08:36:48;;;;;;;101.40;95.88;;;;;;;25.48;43.49;101334.53;5094603;28;20476;-72
2023/06/29 08:39:13;;;;;;;107.72;101.75;;;;;;;25.51;43.53;101330.28;5095560;28;20451;-72
2023/06/29 08:41:39;;;;;;;106.65;100.75;;;;;;;25.53;43.70;101333.56;5076993;28;20078;-73
2023/06/29 08:44:04;;;;;;;101.22;95.65;;;;;;;25.56;43.75;101329.31;5094231;28;20032;-72
2023/06/29 08:46:31;;;;;;;106.68;100.13;;;;;;;25.58;43.91;101329.78;5095561;28;20036;-72
2023/06/29 08:48:57;;;;;;;101.30;95.60;;;;;;;25.59;43.54;101326.69;5095131;28;20460;-73
2023/06/29 08:51:24;;;;;;;100.82;95.32;;;;;;;25.61;43.58;101318.88;5094522;28;20075;-72
2023/06/29 08:53:50;;;;;;;106.18;100.00;;;;;;;25.63;43.81;101316.59;5093872;28;20120;-72
2023/06/29 08:56:17;;;;;;;107.75;101.65;;;;;;;25.65;43.76;101319.84;5093744;28;20131;-72
2023/06/29 08:58:43;;;;;;;103.53;97.47;;;;;;;25.66;43.72;101318.69;5095311;28;20410;-76
2023/06/29 09:01:09;;;;;;;103.35;97.60;;;;;;;25.69;43.42;101317.22;5093858;28;20100;-74
2023/06/29 09:03:38;;;;;;;106.95;101.07;;;;;;;25.71;43.43;101316.91;5094956;28;20024;-74
2023/06/29 09:06:04;;;;;;;104.78;98.47;;;;;;;25.72;43.55;101318.50;5094319;28;20032;-74
2023/06/29 09:08:29;;;;;;;103.15;96.95;;;;;;;25.74;43.57;101314.25;5094602;28;20036;-75
2023/06/29 09:10:55;;;;;;;101.25;95.47;;;;;;;25.77;43.36;101315.56;5095187;28;20038;-75
2023/06/29 09:13:25;;;;;;;103.60;97.65;;;;;;;25.78;43.50;101317.16;5093579;28;20114;-75
2023/06/29 09:15:55;;;;;;;102.82;97.13;;;;;;;25.81;43.30;101316.53;5094167;28;20032;-75
2023/06/29 09:18:23;;;;;;;104.32;98.05;;;;;;;25.82;43.55;101307.06;5094658;28;20039;-74
2023/06/29 09:20:51;;;;;;;102.85;97.15;;;;;;;25.83;43.39;101306.75;5094785;28;20111;-75
2023/06/29 09:23:16;;;;;;;106.85;101.38;;;;;;;25.86;43.55;101303.34;5093342;28;20398;-75
2023/06/29 09:25:42;;;;;;;104.70;98.72;;;;;;;25.88;43.58;101303.00;5093269;28;20042;-74
2023/06/29 09:28:08;;;;;;;106.80;100.72;;;;;;;25.91;43.47;101305.09;5094923;28;20036;-74
2023/06/29 09:30:41;;;;;;;106.72;100.82;;;;;;;25.92;43.74;101303.94;5093423;28;20032;-74
2023/06/29 09:33:11;;;;;;;104.43;98.53;;;;;;;25.95;43.23;101308.00;5094231;28;20083;-75
2023/06/29 09:35:39;;;;;;;105.03;98.47;;;;;;;25.96;43.28;101309.66;5094815;28;20117;-73
2023/06/29 09:38:04;;;;;;;105.45;99.30;;;;;;;25.98;43.07;101308.16;5094443;28;20357;-73
2023/06/29 09:40:30;;;;;;;107.78;101.43;;;;;;;26.01;43.29;101303.94;5094467;28;20043;-73
2023/06/29 09:42:55;;;;;;;105.68;99.80;;;;;;;26.03;43.38;101305.22;5093159;28;20530;-73
2023/06/29 09:45:21;;;;;;;107.07;100.80;;;;;;;26.05;43.36;101302.91;5094262;28;20079;-74
2023/06/29 09:47:51;;;;;;;108.50;101.95;;;;;;;26.08;43.25;101304.19;5093372;28;20460;-75
2023/06/29 09:50:23;;;;;;;110.38;104.03;;;;;;;26.10;43.01;101308.25;5093889;28;20092;-73
2023/06/29 09:52:51;;;;;;;109.50;103.10;;;;;;;26.12;43.38;101317.03;5094409;28;20040;-72
2023/06/29 09:55:17;;;;;;;111.50;104.88;;;;;;;26.16;43.34;101313.59;5093966;28;20446;-73
2023/06/29 09:57:49;;;;;;;107.45;101.47;;;;;;;26.17;43.24;101313.25;5092680;28;20107;-72
2023/06/29 10:00:17;;;;;;;111.78;105.13;;;;;;;26.20;42.99;101314.56;5094364;28;20105;-72
2023/06/29 10:02:42;;;;;;;109.53;103.20;;;;;;;26.22;43.31;101303.97;5093823;28;20044;-73
2023/06/29 10:05:09;;;;;;;110.90;104.53;;;;;;;26.24;43.67;101310.78;5093648;28;20077;-72
2023/06/29 10:07:36;;;;;;;111.32;104.80;;;;;;;26.26;43.17;101305.72;5094057;28;20024;-74
2023/06/29 10:10:05;;;;;;;114.47;107.38;;;;;;;26.28;43.27;101303.44;5093748;28;20036;-71
2023/06/29 10:12:32;;;;;;;108.78;102.53;;;;;;;26.29;43.10;101307.81;5093209;28;20119;-72
2023/06/29 10:15:11;;;;;;;111.13;104.90;;;;;;;26.33;43.18;101307.94;5092261;28;20028;-74
2023/06/29 10:18:27;;;;;;;104.47;98.88;;;;;;;26.33;42.80;101305.16;5091968;28;20028;-73
2023/06/29 10:20:53;;;;;;;108.78;101.90;;;;;;;26.37;43.05;101305.31;5070051;28;20460;-72
2023/06/29 10:23:20;;;;;;;112.47;105.93;;;;;;;26.38;43.14;101302.19;5092317;28;20046;-72
2023/06/29 10:25:49;;;;;;;111.03;104.78;;;;;;;26.42;43.01;101310.66;5093248;28;20035;-72
2023/06/29 10:28:17;;;;;;;108.70;102.47;;;;;;;26.43;42.69;101304.78;5093337;28;20020;-73
2023/06/29 10:30:45;;;;;;;114.93;107.95;;;;;;;26.45;42.94;101308.03;5093582;28;20032;-72
2023/06/29 10:33:10;;;;;;;110.07;103.00;;;;;;;26.48;43.07;101303.78;5093158;28;20067;-72
2023/06/29 10:35:36;;;;;;;108.20;101.47;;;;;;;26.51;43.05;101301.16;5093283;28;20428;-72
2023/06/29 10:38:09;;;;;;;110.95;104.38;;;;;;;26.53;43.00;101298.88;5093814;28;20032;-72
2023/06/29 10:40:46;;;;;;;111.72;105.00;;;;;;;26.56;42.79;101305.72;5092700;28;20028;-72
2023/06/29 10:43:11;;;;;;;109.30;103.13;;;;;;;26.58;42.71;101300.63;5093880;28;20031;-72
2023/06/29 10:45:38;;;;;;;117.47;110.40;;;;;;;26.60;42.82;101303.88;5092229;28;20036;-73
2023/06/29 10:48:05;;;;;;;111.90;105.32;;;;;;;26.62;42.55;101289.69;5092948;28;20036;-73
2023/06/29 10:50:35;;;;;;;109.53;103.70;;;;;;;26.64;42.50;101292.94;5092743;28;20485;-72
2023/06/29 10:53:05;;;;;;;112.05;105.20;;;;;;;26.66;42.46;101296.16;5093000;28;20031;-72
2023/06/29 10:55:44;;;;;;;112.15;105.60;;;;;;;26.69;42.33;101287.19;5093193;28;20028;-71